createdAt,value
2018-01-21T00:00:02.778Z,4.60
2018-01-21T00:01:09.892Z,4.40
2018-01-21T00:02:16.893Z,4.10
2018-01-21T00:03:23.865Z,4.20
2018-01-21T00:04:30.720Z,4.60
2018-01-21T00:05:37.635Z,4.70
2018-01-21T00:06:44.520Z,4.50
2018-01-21T00:07:51.475Z,4.80
2018-01-21T00:08:58.474Z,5.60
2018-01-21T00:10:05.282Z,4.60
2018-01-21T00:11:12.104Z,4.30
2018-01-21T00:12:18.847Z,4.50
2018-01-21T00:13:25.583Z,5.10
2018-01-21T00:14:32.562Z,5.30
2018-01-21T00:15:39.403Z,5.20
2018-01-21T00:16:46.247Z,4.20
2018-01-21T00:17:52.960Z,4.90
2018-01-21T00:18:59.727Z,4.30
2018-01-21T00:20:06.564Z,4.50
2018-01-21T00:21:13.319Z,4.40
2018-01-21T00:22:20.065Z,4.50
2018-01-21T00:23:26.907Z,4.00
2018-01-21T00:24:33.726Z,4.40
2018-01-21T00:25:40.563Z,4.70
2018-01-21T00:26:47.283Z,5.30
2018-01-21T00:27:54.043Z,4.80
2018-01-21T00:29:00.804Z,4.80
2018-01-21T00:30:07.553Z,4.60
2018-01-21T00:31:14.419Z,4.40
2018-01-21T00:32:21.246Z,4.50
2018-01-21T00:33:27.980Z,4.30
2018-01-21T00:34:34.743Z,4.10
2018-01-21T00:35:41.495Z,4.60
2018-01-21T00:36:48.427Z,4.40
2018-01-21T00:37:55.155Z,4.40
2018-01-21T00:39:01.895Z,5.10
2018-01-21T00:40:08.843Z,8.80
2018-01-21T00:41:15.628Z,8.80
2018-01-21T00:42:22.372Z,8.90
2018-01-21T00:43:29.212Z,9.10
2018-01-21T00:44:36.132Z,7.80
2018-01-21T00:45:43.023Z,8.60
2018-01-21T00:46:49.945Z,7.60
2018-01-21T00:49:07.101Z,5.10
2018-01-21T00:50:10.904Z,5.10
2018-01-21T00:51:19.259Z,6.10
2018-01-21T00:52:24.768Z,6.40
2018-01-21T00:53:38.990Z,6.30
2018-01-21T00:54:47.160Z,6.80
2018-01-21T00:55:45.150Z,6.70
2018-01-21T00:56:51.853Z,8.70
2018-01-21T00:57:58.993Z,37.40
2018-01-21T00:59:06.435Z,9.50
2018-01-21T01:00:12.883Z,22.30
2018-01-21T01:01:19.836Z,26.70
2018-01-21T01:02:26.840Z,13.50
2018-01-21T01:03:33.732Z,14.50
2018-01-21T01:04:40.540Z,23.30
2018-01-21T01:05:47.344Z,20.30
2018-01-21T01:06:54.296Z,16.10
2018-01-21T01:08:01.132Z,17.40
2018-01-21T01:09:08.124Z,9.80
2018-01-21T01:10:14.936Z,8.00
2018-01-21T01:11:21.945Z,5.90
2018-01-21T01:12:28.788Z,6.00
2018-01-21T01:13:35.680Z,5.90
2018-01-21T01:14:42.482Z,5.80
2018-01-21T01:15:49.477Z,6.50
2018-01-21T01:16:56.328Z,5.70
2018-01-21T01:18:03.117Z,6.50
2018-01-21T01:19:09.916Z,7.30
2018-01-21T01:20:16.704Z,7.90
2018-01-21T01:21:23.622Z,5.80
2018-01-21T01:22:30.331Z,5.50
2018-01-21T01:23:37.037Z,5.40
2018-01-21T01:24:43.890Z,6.50
2018-01-21T01:25:50.619Z,6.10
2018-01-21T01:26:57.415Z,7.10
2018-01-21T01:28:04.123Z,6.80
2018-01-21T01:29:10.887Z,7.20
2018-01-21T01:30:17.585Z,6.70
2018-01-21T01:31:24.375Z,6.60
2018-01-21T01:32:31.136Z,7.50
2018-01-21T01:33:37.922Z,7.00
2018-01-21T01:34:44.643Z,7.30
2018-01-21T01:35:51.370Z,7.50
2018-01-21T01:36:58.231Z,6.50
2018-01-21T01:38:04.998Z,6.50
2018-01-21T01:39:11.763Z,7.60
2018-01-21T01:40:18.597Z,7.60
2018-01-21T01:41:25.408Z,8.10
2018-01-21T01:42:32.205Z,6.60
2018-01-21T01:43:39.233Z,7.80
2018-01-21T01:44:46.040Z,8.60
2018-01-21T01:45:52.911Z,8.90
2018-01-21T01:46:59.800Z,7.40
2018-01-21T01:48:06.560Z,6.50
2018-01-21T01:49:13.360Z,7.10
2018-01-21T01:50:20.234Z,7.00
2018-01-21T01:51:27.018Z,8.50
2018-01-21T01:52:33.821Z,8.00
2018-01-21T01:53:40.715Z,6.30
2018-01-21T01:54:47.656Z,6.70
2018-01-21T01:55:54.629Z,8.30
2018-01-21T01:57:01.596Z,7.20
2018-01-21T01:58:08.608Z,7.50
2018-01-21T01:59:15.478Z,8.10
2018-01-21T02:00:22.326Z,7.70
2018-01-21T02:01:29.180Z,7.40
2018-01-21T02:02:36.076Z,6.80
2018-01-21T02:03:42.840Z,6.90
2018-01-21T02:04:50.500Z,6.70
2018-01-21T02:05:56.639Z,6.90
2018-01-21T02:07:03.677Z,9.10
2018-01-21T02:08:10.612Z,5.30
2018-01-21T02:09:17.508Z,7.00
2018-01-21T02:10:24.504Z,6.70
2018-01-21T02:11:31.404Z,6.80
2018-01-21T02:12:38.361Z,6.40
2018-01-21T02:13:45.192Z,7.60
2018-01-21T02:14:52.046Z,7.90
2018-01-21T02:15:58.924Z,7.40
2018-01-21T02:17:05.812Z,7.30
2018-01-21T02:18:12.684Z,9.10
2018-01-21T02:19:19.527Z,6.50
2018-01-21T02:20:26.422Z,7.50
2018-01-21T02:21:33.256Z,8.00
2018-01-21T02:22:40.237Z,7.70
2018-01-21T02:23:47.125Z,8.40
2018-01-21T02:24:53.920Z,8.00
2018-01-21T02:26:00.623Z,9.10
2018-01-21T02:27:07.705Z,8.00
2018-01-21T02:28:15.911Z,6.90
2018-01-21T02:29:21.612Z,7.60
2018-01-21T02:30:28.377Z,9.10
2018-01-21T02:31:35.328Z,7.90
2018-01-21T02:32:42.266Z,9.60
2018-01-21T02:33:49.073Z,9.90
2018-01-21T02:34:56.015Z,9.30
2018-01-21T02:36:02.801Z,8.00
2018-01-21T02:37:09.584Z,9.80
2018-01-21T02:38:16.372Z,9.70
2018-01-21T02:39:23.346Z,9.90
2018-01-21T02:40:30.161Z,9.00
2018-01-21T02:41:37.007Z,8.50
2018-01-21T02:42:43.933Z,8.10
2018-01-21T02:43:53.216Z,7.30
2018-01-21T02:44:57.768Z,7.20
2018-01-21T02:46:04.561Z,7.50
2018-01-21T02:47:11.383Z,9.30
2018-01-21T02:48:18.216Z,6.80
2018-01-21T02:49:25.014Z,8.20
2018-01-21T02:50:31.872Z,9.20
2018-01-21T02:51:38.656Z,8.10
2018-01-21T02:52:45.564Z,8.70
2018-01-21T02:53:52.387Z,8.40
2018-01-21T02:54:59.191Z,8.00
2018-01-21T02:56:06.136Z,7.20
2018-01-21T02:57:12.984Z,8.20
2018-01-21T02:58:19.898Z,7.70
2018-01-21T02:59:31.756Z,8.30
2018-01-21T03:00:33.523Z,9.30
2018-01-21T03:01:40.339Z,8.70
2018-01-21T03:02:48.875Z,9.70
2018-01-21T03:03:54.037Z,9.00
2018-01-21T03:05:00.851Z,8.30
2018-01-21T03:06:07.705Z,8.10
2018-01-21T03:07:14.602Z,11.10
2018-01-21T03:08:21.472Z,11.70
2018-01-21T03:09:28.377Z,10.40
2018-01-21T03:10:35.435Z,10.60
2018-01-21T03:11:42.370Z,7.40
2018-01-21T03:12:49.348Z,9.90
2018-01-21T03:13:56.225Z,10.50
2018-01-21T03:15:03.120Z,8.80
2018-01-21T03:16:10.274Z,9.30
2018-01-21T03:17:17.126Z,9.30
2018-01-21T03:18:23.981Z,9.20
2018-01-21T03:19:30.836Z,9.20
2018-01-21T03:20:37.680Z,8.80
2018-01-21T03:21:44.661Z,10.80
2018-01-21T03:22:51.644Z,9.30
2018-01-21T03:23:58.498Z,8.30
2018-01-21T03:25:05.432Z,8.70
2018-01-21T03:26:12.276Z,6.40
2018-01-21T03:27:19.209Z,8.20
2018-01-21T03:28:26.045Z,9.60
2018-01-21T03:29:32.987Z,10.40
2018-01-21T03:30:39.839Z,8.30
2018-01-21T03:31:46.741Z,8.60
2018-01-21T03:32:53.553Z,9.90
2018-01-21T03:34:00.543Z,11.00
2018-01-21T03:35:07.649Z,8.40
2018-01-21T03:36:14.493Z,8.90
2018-01-21T03:37:21.400Z,8.20
2018-01-21T03:38:28.237Z,9.00
2018-01-21T03:39:35.056Z,10.60
2018-01-21T03:40:41.940Z,10.50
2018-01-21T03:41:48.805Z,9.60
2018-01-21T03:42:55.620Z,10.50
2018-01-21T03:44:02.476Z,9.30
2018-01-21T03:45:09.401Z,8.70
2018-01-21T03:46:16.257Z,8.30
2018-01-21T03:47:23.147Z,9.30
2018-01-21T03:48:29.993Z,9.50
2018-01-21T03:49:36.924Z,9.30
2018-01-21T03:50:43.776Z,9.10
2018-01-21T03:51:50.689Z,8.50
2018-01-21T03:52:57.565Z,9.20
2018-01-21T03:54:04.465Z,11.10
2018-01-21T03:55:11.371Z,10.60
2018-01-21T03:56:18.437Z,8.90
2018-01-21T03:57:25.380Z,10.20
2018-01-21T03:58:32.239Z,8.80
2018-01-21T03:59:39.115Z,10.90
2018-01-21T04:00:45.980Z,9.80
2018-01-21T04:01:53.010Z,9.90
2018-01-21T04:02:59.921Z,10.40
2018-01-21T04:04:06.755Z,9.80
2018-01-21T04:05:13.608Z,9.90
2018-01-21T04:06:20.532Z,11.20
2018-01-21T04:07:27.382Z,11.50
2018-01-21T04:08:34.278Z,13.00
2018-01-21T04:09:41.185Z,9.50
2018-01-21T04:10:48.148Z,12.60
2018-01-21T04:11:55.053Z,9.90
2018-01-21T04:13:01.955Z,9.50
2018-01-21T04:14:08.936Z,8.10
2018-01-21T04:15:15.961Z,10.10
2018-01-21T04:16:22.899Z,9.40
2018-01-21T04:17:30.244Z,11.40
2018-01-21T04:18:36.711Z,11.60
2018-01-21T04:19:43.615Z,10.50
2018-01-21T04:20:50.513Z,12.30
2018-01-21T04:21:57.360Z,12.30
2018-01-21T04:23:04.335Z,13.00
2018-01-21T04:24:11.212Z,12.10
2018-01-21T04:25:18.117Z,11.00
2018-01-21T04:26:25.045Z,11.20
2018-01-21T04:27:31.920Z,10.10
2018-01-21T04:28:38.849Z,10.40
2018-01-21T04:29:45.723Z,10.30
2018-01-21T04:30:52.565Z,10.70
2018-01-21T04:31:59.450Z,10.10
2018-01-21T04:33:06.320Z,11.50
2018-01-21T04:34:13.189Z,9.90
2018-01-21T04:35:20.097Z,10.30
2018-01-21T04:36:26.953Z,10.80
2018-01-21T04:37:33.819Z,8.50
2018-01-21T04:38:40.765Z,10.20
2018-01-21T04:39:47.608Z,12.40
2018-01-21T04:40:54.462Z,11.30
2018-01-21T04:42:01.391Z,9.50
2018-01-21T04:43:08.243Z,8.40
2018-01-21T04:44:15.109Z,10.00
2018-01-21T04:45:21.925Z,11.80
2018-01-21T04:46:28.754Z,10.50
2018-01-21T04:47:35.601Z,10.20
2018-01-21T04:48:42.437Z,10.50
2018-01-21T04:49:49.257Z,10.10
2018-01-21T04:50:56.129Z,11.90
2018-01-21T04:52:02.975Z,11.40
2018-01-21T04:53:09.913Z,11.10
2018-01-21T04:54:16.758Z,13.10
2018-01-21T04:55:23.656Z,12.80
2018-01-21T04:56:30.513Z,11.70
2018-01-21T04:57:37.330Z,10.80
2018-01-21T04:58:44.183Z,10.20
2018-01-21T04:59:51.161Z,8.80
2018-01-21T05:00:57.984Z,11.60
2018-01-21T05:02:04.832Z,9.90
2018-01-21T05:03:11.713Z,12.40
2018-01-21T05:04:18.573Z,9.20
2018-01-21T05:05:25.413Z,9.40
2018-01-21T05:06:32.272Z,10.70
2018-01-21T05:07:39.130Z,10.80
2018-01-21T05:08:46.466Z,10.20
2018-01-21T05:09:52.895Z,12.40
2018-01-21T05:10:59.752Z,8.70
2018-01-21T05:12:06.624Z,10.70
2018-01-21T05:13:13.476Z,9.20
2018-01-21T05:14:20.365Z,10.30
2018-01-21T05:15:27.292Z,8.70
2018-01-21T05:16:34.117Z,9.10
2018-01-21T05:17:41.064Z,9.70
2018-01-21T05:18:47.921Z,9.00
2018-01-21T05:19:54.808Z,8.60
2018-01-21T05:21:01.706Z,7.70
2018-01-21T05:22:08.626Z,9.50
2018-01-21T05:23:15.516Z,9.70
2018-01-21T05:24:22.452Z,11.40
2018-01-21T05:25:29.290Z,9.20
2018-01-21T05:26:36.185Z,8.10
2018-01-21T05:27:43.216Z,9.30
2018-01-21T05:28:50.093Z,7.80
2018-01-21T05:29:56.997Z,11.50
2018-01-21T05:31:03.917Z,8.30
2018-01-21T05:32:10.805Z,8.40
2018-01-21T05:33:17.760Z,6.70
2018-01-21T05:34:24.602Z,6.90
2018-01-21T05:35:31.505Z,6.90
2018-01-21T05:36:38.365Z,8.40
2018-01-21T05:37:45.177Z,5.90
2018-01-21T05:38:52.004Z,5.80
2018-01-21T05:39:58.885Z,7.10
2018-01-21T05:41:06.009Z,7.90
2018-01-21T05:42:12.946Z,6.50
2018-01-21T05:43:19.835Z,7.20
2018-01-21T05:44:26.686Z,7.30
2018-01-21T05:45:33.549Z,7.00
2018-01-21T05:46:40.428Z,6.50
2018-01-21T05:47:47.455Z,6.00
2018-01-21T05:48:54.335Z,8.50
2018-01-21T05:50:01.185Z,8.30
2018-01-21T05:51:08.094Z,7.90
2018-01-21T05:52:15.053Z,7.60
2018-01-21T05:53:21.877Z,7.70
2018-01-21T05:54:28.791Z,8.90
2018-01-21T05:55:35.700Z,9.00
2018-01-21T05:56:42.620Z,9.80
2018-01-21T05:57:49.720Z,8.40
2018-01-21T05:58:56.667Z,7.10
2018-01-21T06:00:03.577Z,9.20
2018-01-21T06:01:10.556Z,8.00
2018-01-21T06:02:17.404Z,7.20
2018-01-21T06:03:24.244Z,7.50
2018-01-21T06:04:31.349Z,7.30
2018-01-21T06:05:38.181Z,10.10
2018-01-21T06:06:45.029Z,7.20
2018-01-21T06:07:51.867Z,7.80
2018-01-21T06:08:58.759Z,7.50
2018-01-21T06:10:05.587Z,7.00
2018-01-21T06:11:12.596Z,7.20
2018-01-21T06:12:19.412Z,8.10
2018-01-21T06:13:26.227Z,6.20
2018-01-21T06:14:33.090Z,7.30
2018-01-21T06:15:40.232Z,7.90
2018-01-21T06:16:47.413Z,8.00
2018-01-21T06:17:54.204Z,7.80
2018-01-21T06:19:01.158Z,8.00
2018-01-21T06:20:08.195Z,7.10
2018-01-21T06:21:15.116Z,9.20
2018-01-21T06:22:21.985Z,6.40
2018-01-21T06:23:28.781Z,6.90
2018-01-21T06:24:35.616Z,7.70
2018-01-21T06:25:42.547Z,9.90
2018-01-21T06:26:49.375Z,6.80
2018-01-21T06:27:56.204Z,7.90
2018-01-21T06:29:03.067Z,9.80
2018-01-21T06:30:09.872Z,7.40
2018-01-21T06:31:16.843Z,8.50
2018-01-21T06:32:23.692Z,7.50
2018-01-21T06:33:30.636Z,7.50
2018-01-21T06:34:37.444Z,7.30
2018-01-21T06:35:44.302Z,7.00
2018-01-21T06:36:51.096Z,7.00
2018-01-21T06:37:57.959Z,8.20
2018-01-21T06:39:04.851Z,7.30
2018-01-21T06:40:11.676Z,10.50
2018-01-21T06:41:18.520Z,7.20
2018-01-21T06:42:25.395Z,8.20
2018-01-21T06:43:32.294Z,9.00
2018-01-21T06:44:39.121Z,9.40
2018-01-21T06:45:45.984Z,7.20
2018-01-21T06:46:52.780Z,8.10
2018-01-21T06:47:59.563Z,9.30
2018-01-21T06:49:06.340Z,6.60
2018-01-21T06:50:13.128Z,7.00
2018-01-21T06:51:20.014Z,7.40
2018-01-21T06:52:26.808Z,8.40
2018-01-21T06:53:33.620Z,7.20
2018-01-21T06:54:40.440Z,8.00
2018-01-21T06:55:47.198Z,6.90
2018-01-21T06:56:53.962Z,6.90
2018-01-21T06:58:00.787Z,7.90
2018-01-21T06:59:07.576Z,6.60
2018-01-21T07:00:14.336Z,7.50
2018-01-21T07:01:21.103Z,8.10
2018-01-21T07:02:27.855Z,6.60
2018-01-21T07:03:34.668Z,9.10
2018-01-21T07:04:41.426Z,6.90
2018-01-21T07:05:48.130Z,7.60
2018-01-21T07:06:54.908Z,6.70
2018-01-21T07:08:01.752Z,7.70
2018-01-21T07:09:08.492Z,7.40
2018-01-21T07:10:15.268Z,9.90
2018-01-21T07:11:21.994Z,8.50
2018-01-21T07:12:28.887Z,8.40
2018-01-21T07:13:35.648Z,7.00
2018-01-21T07:14:42.385Z,7.80
2018-01-21T07:15:49.397Z,8.10
2018-01-21T07:16:56.175Z,7.70
2018-01-21T07:18:02.909Z,9.40
2018-01-21T07:19:09.644Z,8.60
2018-01-21T07:20:16.425Z,10.80
2018-01-21T07:21:23.148Z,9.50
2018-01-21T07:22:29.920Z,11.30
2018-01-21T07:23:36.751Z,14.40
2018-01-21T07:24:43.545Z,11.60
2018-01-21T07:25:50.317Z,11.90
2018-01-21T07:26:57.056Z,9.40
2018-01-21T07:28:03.814Z,10.60
2018-01-21T07:29:10.772Z,10.00
2018-01-21T07:30:17.524Z,10.80
2018-01-21T07:31:24.273Z,8.20
2018-01-21T07:32:31.084Z,9.90
2018-01-21T07:33:37.847Z,8.80
2018-01-21T07:34:44.723Z,11.70
2018-01-21T07:35:51.531Z,15.50
2018-01-21T07:36:58.281Z,16.00
2018-01-21T07:38:05.066Z,16.50
2018-01-21T07:39:11.807Z,14.60
2018-01-21T07:40:18.654Z,10.70
2018-01-21T07:41:25.399Z,11.90
2018-01-21T07:42:32.176Z,10.50
2018-01-21T07:43:38.936Z,10.70
2018-01-21T07:44:45.843Z,14.00
2018-01-21T07:45:52.604Z,14.10
2018-01-21T07:46:59.384Z,13.30
2018-01-21T07:48:06.229Z,13.60
2018-01-21T07:49:13.000Z,10.30
2018-01-21T07:50:19.788Z,10.80
2018-01-21T07:51:26.537Z,11.70
2018-01-21T07:52:33.342Z,12.10
2018-01-21T07:53:40.128Z,14.10
2018-01-21T07:54:46.924Z,14.50
2018-01-21T07:55:53.800Z,12.10
2018-01-21T07:57:00.565Z,10.10
2018-01-21T07:58:07.335Z,12.10
2018-01-21T07:59:14.081Z,10.50
2018-01-21T08:00:21.028Z,10.40
2018-01-21T08:01:27.760Z,11.50
2018-01-21T08:02:34.520Z,10.00
2018-01-21T08:03:41.367Z,10.50
2018-01-21T08:04:48.134Z,11.20
2018-01-21T08:05:54.920Z,10.40
2018-01-21T08:07:01.631Z,12.80
2018-01-21T08:08:08.457Z,11.80
2018-01-21T08:09:15.191Z,10.10
2018-01-21T08:10:22.024Z,12.50
2018-01-21T08:11:28.892Z,14.90
2018-01-21T08:12:35.664Z,12.60
2018-01-21T08:13:42.430Z,11.40
2018-01-21T08:14:49.294Z,12.40
2018-01-21T08:15:56.184Z,10.90
2018-01-21T08:17:02.932Z,12.10
2018-01-21T08:18:09.788Z,10.50
2018-01-21T08:19:16.519Z,10.50
2018-01-21T08:20:23.297Z,14.60
2018-01-21T08:21:30.060Z,11.50
2018-01-21T08:22:36.867Z,15.30
2018-01-21T08:23:43.587Z,10.30
2018-01-21T08:24:50.360Z,12.80
2018-01-21T08:25:57.132Z,13.60
2018-01-21T08:27:03.929Z,13.60
2018-01-21T08:28:10.831Z,12.50
2018-01-21T08:29:17.544Z,14.50
2018-01-21T08:30:24.388Z,16.00
2018-01-21T08:31:31.153Z,15.60
2018-01-21T08:32:37.905Z,12.10
2018-01-21T08:33:44.668Z,12.30
2018-01-21T08:34:51.453Z,13.20
2018-01-21T08:35:58.264Z,15.20
2018-01-21T08:37:06.013Z,15.30
2018-01-21T08:38:16.523Z,15.30
2018-01-21T08:39:23.480Z,14.50
2018-01-21T08:40:34.665Z,14.50
2018-01-21T08:41:42.504Z,16.10
2018-01-21T08:42:49.333Z,11.40
2018-01-21T08:43:56.208Z,14.20
2018-01-21T08:45:03.224Z,9.80
2018-01-21T08:46:09.993Z,16.20
2018-01-21T08:47:16.753Z,12.20
2018-01-21T08:48:23.506Z,14.50
2018-01-21T08:49:30.256Z,12.40
2018-01-21T08:50:37.072Z,12.00
2018-01-21T08:51:43.817Z,13.30
2018-01-21T08:52:50.635Z,13.40
2018-01-21T08:53:57.513Z,12.50
2018-01-21T08:55:04.289Z,14.50
2018-01-21T08:56:11.109Z,16.20
2018-01-21T08:57:18.001Z,14.80
2018-01-21T08:58:24.792Z,12.10
2018-01-21T08:59:31.557Z,14.80
2018-01-21T09:00:39.471Z,15.70
2018-01-21T09:01:45.256Z,12.90
2018-01-21T09:02:52.061Z,13.50
2018-01-21T09:03:58.888Z,13.60
2018-01-21T09:05:05.665Z,15.00
2018-01-21T09:06:12.444Z,17.40
2018-01-21T09:07:19.191Z,13.10
2018-01-21T09:08:26.008Z,14.10
2018-01-21T09:09:32.775Z,13.30
2018-01-21T09:10:39.543Z,13.40
2018-01-21T09:11:46.403Z,12.50
2018-01-21T09:12:53.196Z,13.30
2018-01-21T09:14:00.016Z,16.10
2018-01-21T09:15:06.864Z,16.30
2018-01-21T09:16:13.728Z,13.00
2018-01-21T09:17:20.492Z,14.60
2018-01-21T09:18:27.388Z,14.50
2018-01-21T09:19:34.200Z,14.40
2018-01-21T09:20:41.078Z,17.40
2018-01-21T09:21:47.856Z,14.10
2018-01-21T09:22:54.623Z,18.80
2018-01-21T09:24:01.516Z,15.20
2018-01-21T09:25:08.336Z,12.70
2018-01-21T09:26:15.115Z,13.90
2018-01-21T09:27:21.927Z,16.70
2018-01-21T09:28:28.785Z,14.30
2018-01-21T09:29:35.591Z,16.30
2018-01-21T09:30:42.368Z,13.20
2018-01-21T09:31:49.168Z,13.60
2018-01-21T09:32:56.216Z,14.40
2018-01-21T09:34:03.040Z,18.30
2018-01-21T09:35:09.978Z,15.70
2018-01-21T09:36:16.752Z,13.20
2018-01-21T09:37:23.526Z,15.40
2018-01-21T09:38:30.392Z,15.70
2018-01-21T09:39:37.232Z,15.30
2018-01-21T09:40:44.053Z,15.50
2018-01-21T09:41:50.845Z,15.20
2018-01-21T09:42:57.725Z,17.10
2018-01-21T09:44:04.628Z,15.20
2018-01-21T09:45:11.528Z,11.70
2018-01-21T09:46:18.420Z,21.00
2018-01-21T09:47:25.258Z,18.50
2018-01-21T09:48:32.060Z,15.50
2018-01-21T09:49:38.747Z,16.00
2018-01-21T09:50:45.524Z,19.60
2018-01-21T09:51:52.374Z,15.30
2018-01-21T09:52:59.336Z,17.20
2018-01-21T09:54:06.221Z,14.10
2018-01-21T09:55:13.169Z,14.40
2018-01-21T09:56:20.037Z,17.00
2018-01-21T09:57:26.869Z,19.40
2018-01-21T09:58:33.797Z,17.80
2018-01-21T09:59:40.738Z,16.50
2018-01-21T10:00:47.596Z,16.00
2018-01-21T10:01:54.440Z,16.20
2018-01-21T10:03:01.287Z,18.30
2018-01-21T10:04:08.131Z,18.50
2018-01-21T10:05:15.085Z,13.10
2018-01-21T10:06:21.908Z,15.60
2018-01-21T10:07:28.760Z,14.40
2018-01-21T10:08:35.613Z,19.10
2018-01-21T10:09:42.468Z,18.10
2018-01-21T10:10:49.359Z,19.90
2018-01-21T10:11:56.309Z,20.50
2018-01-21T10:13:03.380Z,22.00
2018-01-21T10:14:10.238Z,17.40
2018-01-21T10:15:17.218Z,20.50
2018-01-21T10:16:24.119Z,15.10
2018-01-21T10:17:30.968Z,17.70
2018-01-21T10:18:37.813Z,18.10
2018-01-21T10:19:44.749Z,18.00
2018-01-21T10:20:51.612Z,17.00
2018-01-21T10:21:58.529Z,14.10
2018-01-21T10:23:05.392Z,15.10
2018-01-21T10:24:12.377Z,13.70
2018-01-21T10:25:19.215Z,15.40
2018-01-21T10:26:26.121Z,15.40
2018-01-21T10:27:32.935Z,13.60
2018-01-21T10:28:39.834Z,16.00
2018-01-21T10:29:46.703Z,14.00
2018-01-21T10:30:53.608Z,15.30
2018-01-21T10:32:00.419Z,16.30
2018-01-21T10:33:07.236Z,13.90
2018-01-21T10:34:14.069Z,12.50
2018-01-21T10:35:20.851Z,11.40
2018-01-21T10:36:27.684Z,14.90
2018-01-21T10:37:34.524Z,14.30
2018-01-21T10:38:41.336Z,16.10
2018-01-21T10:39:48.296Z,13.80
2018-01-21T10:40:55.147Z,14.10
2018-01-21T10:42:02.088Z,14.70
2018-01-21T10:43:08.924Z,14.00
2018-01-21T10:44:15.884Z,11.90
2018-01-21T10:45:22.768Z,11.40
2018-01-21T10:46:29.652Z,9.50
2018-01-21T10:47:36.475Z,11.00
2018-01-21T10:48:43.329Z,11.80
2018-01-21T10:49:50.188Z,13.50
2018-01-21T10:50:57.005Z,13.30
2018-01-21T10:52:03.899Z,10.90
2018-01-21T10:53:10.696Z,10.60
2018-01-21T10:54:17.536Z,14.50
2018-01-21T10:55:24.359Z,10.80
2018-01-21T10:56:31.216Z,13.40
2018-01-21T10:57:37.981Z,13.40
2018-01-21T10:58:44.792Z,10.80
2018-01-21T10:59:51.644Z,10.90
2018-01-21T11:00:58.511Z,16.10
2018-01-21T11:02:05.446Z,11.30
2018-01-21T11:03:12.340Z,15.90
2018-01-21T11:04:19.248Z,12.10
2018-01-21T11:05:26.133Z,11.50
2018-01-21T11:06:32.979Z,11.40
2018-01-21T11:07:39.759Z,12.80
2018-01-21T11:08:46.584Z,13.10
2018-01-21T11:09:53.368Z,14.90
2018-01-21T11:11:00.217Z,10.40
2018-01-21T11:12:07.074Z,11.40
2018-01-21T11:13:13.938Z,13.60
2018-01-21T11:14:20.889Z,14.70
2018-01-21T11:15:27.739Z,17.50
2018-01-21T11:16:34.687Z,12.90
2018-01-21T11:17:41.524Z,13.70
2018-01-21T11:18:48.320Z,14.30
2018-01-21T11:19:55.169Z,14.50
2018-01-21T11:21:02.001Z,11.20
2018-01-21T11:22:08.985Z,9.70
2018-01-21T11:23:15.916Z,14.30
2018-01-21T11:24:22.946Z,11.70
2018-01-21T11:25:29.817Z,10.10
2018-01-21T11:26:36.656Z,12.40
2018-01-21T11:27:43.585Z,10.70
2018-01-21T11:28:50.441Z,10.60
2018-01-21T11:29:57.244Z,13.70
2018-01-21T11:31:04.131Z,9.70
2018-01-21T11:32:11.029Z,10.40
2018-01-21T11:33:18.000Z,10.20
2018-01-21T11:34:24.799Z,13.70
2018-01-21T11:35:31.779Z,11.80
2018-01-21T11:36:38.643Z,11.80
2018-01-21T11:37:45.677Z,11.00
2018-01-21T11:38:52.507Z,11.90
2018-01-21T11:39:59.360Z,11.90
2018-01-21T11:41:06.188Z,11.30
2018-01-21T11:42:13.017Z,12.20
2018-01-21T11:43:19.917Z,12.90
2018-01-21T11:44:26.749Z,11.50
2018-01-21T11:45:33.633Z,9.90
2018-01-21T11:46:40.504Z,12.40
2018-01-21T11:47:47.548Z,11.80
2018-01-21T11:48:54.479Z,11.70
2018-01-21T11:50:01.329Z,12.00
2018-01-21T11:51:08.247Z,10.50
2018-01-21T11:52:15.095Z,10.40
2018-01-21T11:53:22.292Z,10.50
2018-01-21T11:54:28.661Z,9.70
2018-01-21T11:55:35.523Z,10.10
2018-01-21T11:56:42.404Z,12.80
2018-01-21T11:57:49.326Z,12.80
2018-01-21T11:58:56.194Z,10.40
2018-01-21T12:00:03.145Z,12.10
2018-01-21T12:01:10.023Z,13.80
2018-01-21T12:02:16.961Z,9.70
2018-01-21T12:03:23.768Z,14.20
2018-01-21T12:04:30.564Z,15.50
2018-01-21T12:05:37.419Z,13.20
2018-01-21T12:06:44.217Z,10.10
2018-01-21T12:07:51.044Z,11.60
2018-01-21T12:08:57.919Z,9.50
2018-01-21T12:10:04.707Z,13.50
2018-01-21T12:11:11.504Z,11.10
2018-01-21T12:12:18.445Z,10.40
2018-01-21T12:13:25.248Z,10.00
2018-01-21T12:14:32.187Z,10.00
2018-01-21T12:15:38.971Z,11.10
2018-01-21T12:16:45.887Z,10.20
2018-01-21T12:17:52.720Z,13.50
2018-01-21T12:18:59.525Z,12.30
2018-01-21T12:20:06.319Z,12.90
2018-01-21T12:21:13.080Z,10.60
2018-01-21T12:22:19.856Z,9.90
2018-01-21T12:23:26.621Z,13.10
2018-01-21T12:24:33.587Z,12.20
2018-01-21T12:25:40.365Z,17.50
2018-01-21T12:26:47.160Z,12.70
2018-01-21T12:27:54.029Z,12.00
2018-01-21T12:29:00.816Z,12.70
2018-01-21T12:30:07.625Z,12.70
2018-01-21T12:31:14.508Z,12.20
2018-01-21T12:32:21.297Z,9.60
2018-01-21T12:33:28.045Z,14.50
2018-01-21T12:34:34.832Z,12.50
2018-01-21T12:35:41.616Z,12.50
2018-01-21T12:36:48.373Z,12.70
2018-01-21T12:37:55.213Z,10.20
2018-01-21T12:39:02.084Z,12.70
2018-01-21T12:40:09.056Z,10.40
2018-01-21T12:41:15.892Z,10.50
2018-01-21T12:42:22.672Z,10.00
2018-01-21T12:43:29.440Z,12.40
2018-01-21T12:44:36.604Z,10.50
2018-01-21T12:45:43.588Z,10.40
2018-01-21T12:46:50.373Z,12.40
2018-01-21T12:47:57.112Z,12.30
2018-01-21T12:49:04.060Z,9.60
2018-01-21T12:50:10.921Z,11.40
2018-01-21T12:51:17.647Z,12.30
2018-01-21T12:52:24.493Z,10.80
2018-01-21T12:53:31.364Z,10.80
2018-01-21T12:54:38.131Z,9.90
2018-01-21T12:55:44.932Z,11.20
2018-01-21T12:56:51.760Z,8.20
2018-01-21T12:57:58.516Z,9.80
2018-01-21T12:59:05.384Z,9.50
2018-01-21T13:00:12.156Z,9.10
2018-01-21T13:01:18.900Z,13.00
2018-01-21T13:02:25.669Z,12.50
2018-01-21T13:03:32.514Z,11.30
2018-01-21T13:04:39.644Z,10.00
2018-01-21T13:05:46.383Z,10.90
2018-01-21T13:06:53.160Z,13.20
2018-01-21T13:07:59.889Z,10.10
2018-01-21T13:09:06.624Z,12.10
2018-01-21T13:10:13.408Z,11.70
2018-01-21T13:11:20.175Z,9.70
2018-01-21T13:12:27.036Z,11.20
2018-01-21T13:13:33.856Z,11.10
2018-01-21T13:14:40.601Z,10.70
2018-01-21T13:15:47.437Z,10.30
2018-01-21T13:16:54.152Z,10.80
2018-01-21T13:18:00.959Z,11.10
2018-01-21T13:19:07.729Z,8.90
2018-01-21T13:20:14.448Z,11.40
2018-01-21T13:21:21.219Z,8.30
2018-01-21T13:22:28.073Z,14.10
2018-01-21T13:23:34.793Z,11.70
2018-01-21T13:24:41.536Z,12.60
2018-01-21T13:25:48.260Z,10.70
2018-01-21T13:26:55.022Z,12.80
2018-01-21T13:28:01.852Z,9.90
2018-01-21T13:29:08.624Z,11.00
2018-01-21T13:30:15.404Z,7.80
2018-01-21T13:31:22.206Z,10.40
2018-01-21T13:32:29.024Z,15.40
2018-01-21T13:33:35.792Z,10.00
2018-01-21T13:34:42.549Z,9.70
2018-01-21T13:35:49.288Z,10.00
2018-01-21T13:36:56.088Z,9.50
2018-01-21T13:38:02.808Z,10.10
2018-01-21T13:39:09.669Z,10.80
2018-01-21T13:40:16.536Z,10.70
2018-01-21T13:41:23.265Z,10.50
2018-01-21T13:42:30.024Z,9.60
2018-01-21T13:43:36.767Z,9.90
2018-01-21T13:44:43.676Z,8.90
2018-01-21T13:45:50.432Z,12.90
2018-01-21T13:46:57.148Z,10.10
2018-01-21T13:48:03.896Z,9.10
2018-01-21T13:49:10.753Z,8.80
2018-01-21T13:50:17.499Z,9.60
2018-01-21T13:51:24.396Z,9.20
2018-01-21T13:52:31.216Z,11.80
2018-01-21T13:53:37.946Z,9.00
2018-01-21T13:54:44.715Z,9.80
2018-01-21T13:55:51.456Z,9.50
2018-01-21T13:56:58.330Z,11.50
2018-01-21T13:58:05.124Z,7.40
2018-01-21T13:59:11.852Z,9.50
2018-01-21T14:00:18.605Z,12.30
2018-01-21T14:01:25.450Z,8.10
2018-01-21T14:02:32.237Z,11.00
2018-01-21T14:03:39.012Z,11.80
2018-01-21T14:04:45.928Z,10.90
2018-01-21T14:05:52.728Z,9.20
2018-01-21T14:06:59.504Z,8.30
2018-01-21T14:08:06.266Z,9.30
2018-01-21T14:09:13.104Z,8.30
2018-01-21T14:10:19.902Z,9.60
2018-01-21T14:11:26.840Z,7.20
2018-01-21T14:12:33.600Z,11.70
2018-01-21T14:13:40.404Z,12.00
2018-01-21T14:14:47.317Z,9.40
2018-01-21T14:15:54.185Z,11.70
2018-01-21T14:17:01.072Z,8.40
2018-01-21T14:18:07.836Z,8.40
2018-01-21T14:19:14.613Z,9.20
2018-01-21T14:20:21.396Z,8.90
2018-01-21T14:21:28.209Z,9.10
2018-01-21T14:22:34.941Z,8.60
2018-01-21T14:23:41.738Z,7.70
2018-01-21T14:24:48.499Z,9.60
2018-01-21T14:25:55.333Z,6.70
2018-01-21T14:27:02.200Z,7.40
2018-01-21T14:28:08.955Z,9.00
2018-01-21T14:29:15.824Z,9.50
2018-01-21T14:30:22.552Z,7.70
2018-01-21T14:31:29.319Z,8.20
2018-01-21T14:32:36.104Z,9.00
2018-01-21T14:33:42.885Z,10.30
2018-01-21T14:34:49.732Z,10.70
2018-01-21T14:35:56.592Z,9.80